Time;durP1;ratioP1;P1;durP2;ratioP2;P2;SDS_P1;SDS_P2;PMS_P1;PMS_P2;Temp;Humidity;BMP_temperature;BMP_pressure;BME280_temperature;BME280_humidity;BME280_pressure;Samples;Min_cycle;Max_cycle;Signal;HPM_P1;HPM_P2
2022/05/18 00:01:00;;;;;;;2.95;1.20;;;12.20;99.90;;;;;;5016479;28;20489;-67
2022/05/18 00:03:31;;;;;;;4.60;1.20;;;12.20;99.90;;;;;;5078261;23;20519;-69
2022/05/18 00:06:00;;;;;;;12.05;2.25;;;12.10;99.90;;;;;;5036417;28;20028;-70
2022/05/18 00:08:26;;;;;;;5.43;1.30;;;12.00;99.90;;;;;;5034658;28;20547;-70
2022/05/18 00:10:52;;;;;;;3.85;1.10;;;12.00;99.90;;;;;;5036210;28;20037;-70
2022/05/18 00:13:18;;;;;;;2.70;1.30;;;12.00;99.90;;;;;;5036035;28;20030;-70
2022/05/18 00:15:45;;;;;;;3.80;1.23;;;11.90;99.90;;;;;;5036093;28;20416;-70
2022/05/18 00:18:11;;;;;;;3.03;1.27;;;11.90;99.90;;;;;;5035309;28;20048;-70
2022/05/18 00:20:36;;;;;;;4.38;1.48;;;11.80;99.90;;;;;;5034705;28;20440;-70
2022/05/18 00:23:04;;;;;;;4.43;1.42;;;11.80;99.90;;;;;;5036126;28;20035;-70
2022/05/18 00:25:35;;;;;;;9.23;1.40;;;11.80;99.90;;;;;;5035956;28;20093;-70
2022/05/18 00:28:01;;;;;;;10.15;1.52;;;11.80;99.90;;;;;;5035143;28;20116;-70
2022/05/18 00:30:28;;;;;;;9.32;1.42;;;11.80;99.90;;;;;;5035458;28;20060;-70
2022/05/18 00:32:54;;;;;;;5.20;1.58;;;11.80;99.90;;;;;;5035784;28;20029;-70
2022/05/18 00:35:22;;;;;;;2.90;1.33;;;11.80;99.90;;;;;;5035846;28;20387;-70
2022/05/18 00:37:48;;;;;;;3.08;1.25;;;11.70;99.90;;;;;;5035359;28;20071;-70
2022/05/18 00:40:16;;;;;;;2.20;1.05;;;11.80;99.90;;;;;;5035031;28;20021;-70
2022/05/18 00:42:41;;;;;;;6.82;1.30;;;11.70;99.90;;;;;;5035889;28;20022;-70
2022/05/18 00:45:08;;;;;;;6.35;1.38;;;11.70;99.90;;;;;;5035628;28;20025;-70
2022/05/18 00:47:36;;;;;;;5.93;1.17;;;11.70;99.90;;;;;;5035890;28;20112;-70
2022/05/18 00:50:18;;;;;;;8.15;1.33;;;11.70;99.90;;;;;;5034206;28;20038;-70
2022/05/18 00:52:51;;;;;;;14.40;1.35;;;11.60;99.90;;;;;;5035542;28;20025;-70
2022/05/18 00:55:22;;;;;;;8.57;1.35;;;11.60;99.90;;;;;;5035586;28;20039;-70
2022/05/18 00:58:13;;;;;;;2.95;1.00;;;11.60;99.90;;;;;;5033170;28;20030;-70
2022/05/18 01:00:40;;;;;;;7.82;1.17;;;11.60;99.90;;;;;;5026015;28;20036;-70
2022/05/18 01:03:26;;;;;;;3.72;0.88;;;11.50;99.90;;;;;;5035043;28;20087;-70
2022/05/18 01:06:23;;;;;;;4.45;1.10;;;11.50;99.90;;;;;;5035383;28;20499;-70
2022/05/18 01:09:04;;;;;;;7.35;1.20;;;11.50;99.90;;;;;;5026177;28;20180;-70
2022/05/18 01:11:33;;;;;;;3.83;1.13;;;11.50;99.90;;;;;;5035470;28;20030;-70
2022/05/18 01:13:59;;;;;;;5.28;1.42;;;11.50;99.90;;;;;;5035074;28;20056;-70
2022/05/18 01:16:26;;;;;;;7.43;1.17;;;11.50;99.90;;;;;;5035192;28;20032;-70
2022/05/18 01:18:53;;;;;;;2.85;1.10;;;11.40;99.90;;;;;;5033947;28;20033;-70
2022/05/18 01:21:19;;;;;;;1.52;0.90;;;11.40;99.90;;;;;;5035002;28;20469;-70
2022/05/18 01:23:47;;;;;;;1.88;1.15;;;11.40;99.90;;;;;;5034719;28;20044;-70
2022/05/18 01:26:20;;;;;;;4.40;1.73;;;11.40;99.90;;;;;;5034906;28;20101;-70
2022/05/18 01:28:53;;;;;;;6.45;1.05;;;11.40;99.90;;;;;;5033324;28;20052;-70
2022/05/18 01:31:39;;;;;;;2.25;1.33;;;11.40;99.90;;;;;;5017042;28;20029;-70
2022/05/18 01:34:05;;;;;;;5.88;1.50;;;11.30;99.90;;;;;;5034716;28;20044;-70
2022/05/18 01:36:30;;;;;;;5.43;1.40;;;11.30;99.90;;;;;;5035130;28;20037;-70
2022/05/18 01:38:56;;;;;;;3.60;1.17;;;11.30;99.90;;;;;;5033081;28;20034;-70
2022/05/18 01:41:21;;;;;;;8.20;1.10;;;11.30;99.90;;;;;;5034788;28;20025;-70
2022/05/18 01:43:51;;;;;;;1.67;1.00;;;11.20;99.90;;;;;;5034507;28;20105;-70
2022/05/18 01:46:18;;;;;;;8.02;1.48;;;11.20;99.90;;;;;;5034345;28;20022;-70
2022/05/18 01:48:47;;;;;;;7.07;1.05;;;11.20;99.90;;;;;;5032468;28;20053;-70
2022/05/18 01:51:21;;;;;;;4.57;1.50;;;11.20;99.90;;;;;;5034309;28;20025;-70
2022/05/18 01:53:46;;;;;;;;;;;11.20;99.90;;;;;;5034720;28;20029;-69
2022/05/18 01:56:12;;;;;;;5.43;1.35;;;11.20;99.90;;;;;;5034436;28;19912;-70
2022/05/18 01:58:37;;;;;;;5.65;1.20;;;11.20;99.90;;;;;;5032898;28;20025;-69
2022/05/18 02:01:04;;;;;;;8.05;1.40;;;11.20;99.90;;;;;;5034193;28;20024;-70
2022/05/18 02:03:30;;;;;;;3.53;1.80;;;11.20;99.90;;;;;;5034127;28;20473;-70
2022/05/18 02:05:55;;;;;;;1.38;1.00;;;11.20;99.90;;;;;;5034132;28;20034;-70
2022/05/18 02:08:22;;;;;;;1.92;1.08;;;11.20;99.90;;;;;;5033200;28;20038;-70
2022/05/18 02:10:48;;;;;;;3.78;1.23;;;11.20;99.90;;;;;;5034073;28;20036;-70
2022/05/18 02:13:15;;;;;;;1.17;0.93;;;11.20;99.90;;;;;;5033877;28;20032;-70
2022/05/18 02:15:41;;;;;;;5.75;1.33;;;11.10;99.90;;;;;;5033723;28;20105;-70
2022/05/18 02:18:07;;;;;;;3.30;1.20;;;11.10;99.90;;;;;;5032895;28;20029;-69
2022/05/18 02:20:34;;;;;;;4.72;1.25;;;11.00;99.90;;;;;;5033871;28;20022;-69
2022/05/18 02:23:00;;;;;;;5.68;1.45;;;11.00;99.90;;;;;;5033907;28;20068;-70
2022/05/18 02:25:26;;;;;;;2.53;1.20;;;11.00;99.90;;;;;;5033915;28;20083;-70
2022/05/18 02:27:52;;;;;;;3.25;1.30;;;10.90;99.90;;;;;;5032590;28;20420;-69
2022/05/18 02:30:18;;;;;;;4.18;1.00;;;10.90;99.90;;;;;;5032758;28;20026;-70
2022/05/18 02:32:44;;;;;;;8.93;1.60;;;10.90;99.90;;;;;;5033479;28;20028;-69
2022/05/18 02:35:10;;;;;;;6.43;1.17;;;10.90;99.90;;;;;;5033935;28;20029;-70
2022/05/18 02:37:36;;;;;;;1.33;0.90;;;10.90;99.90;;;;;;5033517;28;20389;-70
2022/05/18 02:40:02;;;;;;;4.22;1.73;;;10.80;99.90;;;;;;5032401;28;20022;-70
2022/05/18 02:42:28;;;;;;;5.55;1.42;;;10.80;99.90;;;;;;5032550;28;20022;-69
2022/05/18 02:44:54;;;;;;;3.38;1.42;;;10.70;99.90;;;;;;5033577;28;20032;-70
2022/05/18 02:47:20;;;;;;;2.15;0.90;;;10.70;99.90;;;;;;5033549;28;20025;-70
2022/05/18 02:49:46;;;;;;;4.93;1.35;;;10.70;99.90;;;;;;5033587;28;20053;-69
2022/05/18 02:52:11;;;;;;;4.43;1.20;;;10.60;99.90;;;;;;5032116;28;20032;-69
2022/05/18 02:57:21;;;;;;;2.20;1.00;;;10.60;99.90;;;;;;5032074;28;20039;-70
2022/05/18 02:59:47;;;;;;;5.65;2.45;;;10.50;99.90;;;;;;5033814;28;20017;-69
2022/05/18 03:02:13;;;;;;;3.33;1.33;;;10.50;99.90;;;;;;5037457;28;20108;-70
2022/05/18 03:04:38;;;;;;;5.43;1.42;;;10.40;99.90;;;;;;5037234;28;20037;-70
2022/05/18 03:07:04;;;;;;;6.82;1.10;;;10.40;99.90;;;;;;5037399;28;20041;-70
2022/05/18 03:09:30;;;;;;;3.90;1.38;;;10.30;99.90;;;;;;5036615;28;20031;-70
2022/05/18 03:11:56;;;;;;;3.17;1.27;;;10.20;99.90;;;;;;5037523;28;20108;-70
2022/05/18 03:14:22;;;;;;;6.72;1.42;;;10.20;99.90;;;;;;5037363;28;20022;-70
2022/05/18 03:16:49;;;;;;;5.47;1.58;;;10.10;99.90;;;;;;5037018;28;20029;-70
2022/05/18 03:19:15;;;;;;;3.25;1.50;;;10.10;99.90;;;;;;5035781;28;20052;-70
2022/05/18 03:24:28;;;;;;;2.75;1.63;;;10.00;99.90;;;;;;5006137;28;20038;-70
2022/05/18 03:26:53;;;;;;;3.17;1.30;;;9.90;99.90;;;;;;5037130;28;20025;-70
2022/05/18 03:29:19;;;;;;;3.85;1.30;;;9.90;99.90;;;;;;5036404;28;20036;-70
2022/05/18 03:31:47;;;;;;;11.77;1.63;;;9.80;99.90;;;;;;5037204;28;20116;-70
2022/05/18 03:34:13;;;;;;;8.20;1.80;;;9.80;99.90;;;;;;5036900;28;20044;-70
2022/05/18 03:36:39;;;;;;;7.65;1.55;;;9.80;99.90;;;;;;5036722;28;20025;-70
2022/05/18 03:39:06;;;;;;;2.97;1.42;;;9.80;99.90;;;;;;5035487;28;20025;-70
2022/05/18 03:41:34;;;;;;;2.78;1.30;;;9.70;99.90;;;;;;5037026;28;20021;-70
2022/05/18 03:44:04;;;;;;;3.45;1.42;;;9.70;99.90;;;;;;5036705;28;20022;-70
2022/05/18 03:46:29;;;;;;;5.63;1.98;;;9.80;99.90;;;;;;5036487;28;20034;-70
2022/05/18 03:48:55;;;;;;;6.20;1.55;;;9.80;99.90;;;;;;5035898;28;20410;-70
2022/05/18 03:51:20;;;;;;;3.53;1.70;;;9.80;99.90;;;;;;5036619;28;20104;-70
2022/05/18 03:53:46;;;;;;;7.55;1.50;;;9.90;99.90;;;;;;5036851;28;20026;-70
2022/05/18 03:56:13;;;;;;;4.40;1.25;;;10.00;99.90;;;;;;5036579;28;20022;-70
2022/05/18 03:58:39;;;;;;;3.20;1.30;;;10.00;99.90;;;;;;5035165;28;20033;-70
2022/05/18 04:01:08;;;;;;;1.77;1.25;;;10.10;99.90;;;;;;5036542;28;20583;-70
2022/05/18 04:03:41;;;;;;;6.70;1.45;;;10.20;99.90;;;;;;5036407;28;20033;-70
2022/05/18 04:06:07;;;;;;;6.38;1.38;;;10.20;99.90;;;;;;5035944;28;20017;-70
2022/05/18 04:08:32;;;;;;;7.00;1.60;;;10.30;99.90;;;;;;5036661;28;20444;-70
2022/05/18 04:10:59;;;;;;;2.85;1.73;;;10.40;99.90;;;;;;5036150;28;20048;-70
2022/05/18 04:13:25;;;;;;;2.85;1.50;;;10.40;99.90;;;;;;5035754;28;20401;-70
2022/05/18 04:15:51;;;;;;;2.20;1.25;;;10.50;99.90;;;;;;5035054;28;20071;-70
2022/05/18 04:18:17;;;;;;;1.70;1.38;;;10.60;99.90;;;;;;5036818;28;20033;-70
2022/05/18 04:20:44;;;;;;;3.38;1.42;;;10.70;99.90;;;;;;5036169;28;20037;-70
2022/05/18 04:23:10;;;;;;;9.55;1.55;;;10.90;99.90;;;;;;5035841;28;20032;-70
2022/05/18 04:25:36;;;;;;;5.13;1.35;;;11.00;99.90;;;;;;5035293;28;20033;-70
2022/05/18 04:28:03;;;;;;;3.72;1.42;;;11.10;99.90;;;;;;5035919;28;20025;-70
2022/05/18 04:30:29;;;;;;;6.55;1.13;;;11.30;99.90;;;;;;5034361;28;20036;-70
2022/05/18 04:32:55;;;;;;;3.95;1.60;;;11.30;99.90;;;;;;5035953;28;20492;-70
2022/05/18 04:35:23;;;;;;;4.45;1.33;;;11.40;99.90;;;;;;5035944;28;20025;-70
2022/05/18 04:37:49;;;;;;;13.23;1.90;;;11.50;99.90;;;;;;5035003;28;20034;-72
2022/05/18 04:40:15;;;;;;;3.47;1.50;;;11.60;99.90;;;;;;5035438;28;20022;-72
2022/05/18 04:42:41;;;;;;;17.90;1.63;;;11.50;99.90;;;;;;5035449;28;20025;-71
2022/05/18 04:45:09;;;;;;;6.43;1.70;;;11.60;99.90;;;;;;5017746;28;20394;-71
2022/05/18 04:47:35;;;;;;;3.70;1.35;;;11.70;99.90;;;;;;5029255;28;20037;-71
2022/05/18 04:50:00;;;;;;;8.98;1.50;;;11.70;99.90;;;;;;5015710;28;20021;-71
2022/05/18 04:52:26;;;;;;;4.78;1.63;;;11.70;99.90;;;;;;5015801;28;20034;-71
2022/05/18 04:54:51;;;;;;;8.70;1.80;;;11.80;99.90;;;;;;5015509;28;20497;-71
2022/05/18 04:57:18;;;;;;;9.98;1.30;;;11.80;99.90;;;;;;5018431;28;20026;-71
2022/05/18 04:59:44;;;;;;;5.15;1.70;;;11.90;99.90;;;;;;5035491;28;20018;-72
2022/05/18 05:02:10;;;;;;;2.88;1.60;;;12.00;99.90;;;;;;5035456;28;20028;-72
2022/05/18 05:04:37;;;;;;;1.58;1.02;;;12.10;99.90;;;;;;5035018;28;20033;-72
2022/05/18 05:07:03;;;;;;;13.77;2.00;;;12.20;99.90;;;;;;5034846;28;20037;-71
2022/05/18 05:09:29;;;;;;;4.00;1.67;;;12.40;99.90;;;;;;5034506;28;20029;-72
2022/05/18 05:11:55;;;;;;;11.10;1.83;;;12.60;99.90;;;;;;5035539;28;20025;-72
2022/05/18 05:14:21;;;;;;;7.45;2.15;;;12.70;99.90;;;;;;5033684;28;20036;-72
2022/05/18 05:16:47;;;;;;;9.35;1.95;;;12.70;99.90;;;;;;5034772;28;20025;-72
2022/05/18 05:19:14;;;;;;;4.13;1.55;;;12.80;99.90;;;;;;5034947;28;20449;-71
2022/05/18 05:21:44;;;;;;;6.25;1.55;;;13.00;99.90;;;;;;5034950;28;20028;-71
2022/05/18 05:24:10;;;;;;;8.38;1.60;;;13.20;99.90;;;;;;5033787;28;20404;-71
2022/05/18 05:26:36;;;;;;;6.63;1.90;;;13.40;99.90;;;;;;5032927;28;20034;-70
2022/05/18 05:29:02;;;;;;;5.28;1.55;;;13.70;99.90;;;;;;5030840;28;20026;-70
2022/05/18 05:31:27;;;;;;;4.25;1.58;;;13.80;99.90;;;;;;5034916;28;20060;-70
2022/05/18 05:33:53;;;;;;;4.95;1.80;;;13.90;99.90;;;;;;5034606;28;20421;-70
2022/05/18 05:36:19;;;;;;;9.35;1.52;;;13.80;99.90;;;;;;5034423;28;20057;-70
2022/05/18 05:38:45;;;;;;;10.68;1.42;;;13.80;99.90;;;;;;5034291;28;20028;-70
2022/05/18 05:41:11;;;;;;;5.70;1.73;;;13.80;99.90;;;;;;5034402;28;20022;-70
2022/05/18 05:43:39;;;;;;;3.78;1.50;;;13.70;99.90;;;;;;5034252;28;20535;-70
2022/05/18 05:46:07;;;;;;;4.35;1.55;;;13.60;99.90;;;;;;5033652;28;20017;-70
2022/05/18 05:48:34;;;;;;;8.13;1.60;;;13.60;99.90;;;;;;5033072;28;20026;-71
2022/05/18 05:51:00;;;;;;;7.00;1.70;;;13.50;99.90;;;;;;5035051;28;20120;-71
2022/05/18 05:53:27;;;;;;;7.05;2.05;;;13.50;99.90;;;;;;5034431;28;20029;-71
2022/05/18 05:55:56;;;;;;;6.05;1.83;;;13.40;99.90;;;;;;5034486;28;20052;-71
2022/05/18 05:58:22;;;;;;;6.95;1.83;;;13.30;99.90;;;;;;5033116;28;20029;-71
2022/05/18 06:00:48;;;;;;;6.93;1.75;;;13.30;99.90;;;;;;5034695;28;20022;-71
2022/05/18 06:03:15;;;;;;;9.27;1.80;;;13.30;99.90;;;;;;5055457;23;20033;-68
2022/05/18 06:05:41;;;;;;;6.53;1.70;;;13.30;99.90;;;;;;5014496;28;20481;-67
2022/05/18 06:08:08;;;;;;;4.25;1.70;;;13.40;99.90;;;;;;5013627;28;20033;-68
2022/05/18 06:10:34;;;;;;;4.90;2.28;;;13.80;99.90;;;;;;5014073;28;20041;-66
2022/05/18 06:13:05;;;;;;;9.40;2.10;;;14.10;99.90;;;;;;5013893;28;20057;-66
2022/05/18 06:15:30;;;;;;;6.75;2.03;;;14.60;99.90;;;;;;5014047;28;20512;-68
2022/05/18 06:17:56;;;;;;;9.85;2.42;;;14.90;99.90;;;;;;5012863;28;20113;-68
2022/05/18 06:20:21;;;;;;;3.03;1.83;;;15.30;99.90;;;;;;5013876;28;20109;-68
2022/05/18 06:22:47;;;;;;;5.53;2.25;;;15.50;99.90;;;;;;5013916;28;20033;-67
2022/05/18 06:25:14;;;;;;;7.25;2.58;;;15.50;99.90;;;;;;5013781;28;20025;-67
2022/05/18 06:27:41;;;;;;;6.47;2.60;;;15.60;99.90;;;;;;5013092;28;20544;-67
2022/05/18 06:30:08;;;;;;;4.93;2.88;;;15.70;99.90;;;;;;5013742;28;20038;-68
2022/05/18 06:32:34;;;;;;;4.50;2.08;;;15.70;99.90;;;;;;5013707;28;20030;-67
2022/05/18 06:34:59;;;;;;;5.53;2.22;;;15.80;99.90;;;;;;5013342;28;20079;-68
2022/05/18 06:37:25;;;;;;;9.73;2.65;;;15.80;99.90;;;;;;5012601;28;20136;-68
2022/05/18 06:39:50;;;;;;;9.50;2.42;;;15.80;99.90;;;;;;5013692;28;20501;-67
2022/05/18 06:42:16;;;;;;;11.48;2.60;;;15.80;99.90;;;;;;5013613;28;20670;-67
2022/05/18 06:44:42;;;;;;;17.30;3.70;;;15.90;99.90;;;;;;5013735;28;20437;-67
2022/05/18 06:47:07;;;;;;;7.45;2.28;;;15.90;99.90;;;;;;5012197;28;20030;-67
2022/05/18 06:49:33;;;;;;;8.38;2.58;;;16.00;99.90;;;;;;5013822;28;20057;-67
2022/05/18 06:51:59;;;;;;;10.48;2.95;;;16.20;99.90;;;;;;5013542;28;20064;-67
2022/05/18 06:54:24;;;;;;;9.43;3.60;;;16.30;99.90;;;;;;5013689;28;20057;-68
2022/05/18 06:56:50;;;;;;;8.25;2.58;;;16.40;99.90;;;;;;5012648;28;20462;-67
2022/05/18 06:59:16;;;;;;;10.43;3.40;;;16.30;99.90;;;;;;5013741;28;20105;-68
2022/05/18 07:01:42;;;;;;;10.80;2.65;;;16.30;99.90;;;;;;5013960;28;20032;-68
2022/05/18 07:04:10;;;;;;;8.25;2.72;;;16.10;99.90;;;;;;5013219;28;20474;-68
2022/05/18 07:06:39;;;;;;;8.25;3.42;;;16.30;99.90;;;;;;5012217;28;20113;-69
2022/05/18 07:09:08;;;;;;;10.65;2.88;;;16.30;99.90;;;;;;5013450;28;20103;-68
2022/05/18 07:11:36;;;;;;;6.80;3.35;;;16.40;99.90;;;;;;5013753;28;20034;-67
2022/05/18 07:14:02;;;;;;;4.15;2.53;;;16.50;99.90;;;;;;5013312;28;20113;-68
2022/05/18 07:16:28;;;;;;;7.82;3.05;;;16.50;99.90;;;;;;5013281;28;20394;-68
2022/05/18 07:18:55;;;;;;;8.52;2.70;;;16.60;99.90;;;;;;5012739;28;20500;-68
2022/05/18 07:21:21;;;;;;;12.85;3.40;;;16.50;99.90;;;;;;5013586;28;20084;-69
2022/05/18 07:23:48;;;;;;;11.07;3.45;;;16.50;99.90;;;;;;5013223;28;20096;-69
2022/05/18 07:26:15;;;;;;;9.45;3.17;;;16.60;99.90;;;;;;5013378;28;20022;-69
2022/05/18 07:28:41;;;;;;;7.72;3.35;;;16.60;99.90;;;;;;5012234;28;20034;-67
2022/05/18 07:31:08;;;;;;;10.30;3.20;;;16.50;99.90;;;;;;5013467;28;20030;-67
2022/05/18 07:33:34;;;;;;;5.80;3.50;;;16.60;99.90;;;;;;5013181;28;20026;-69
2022/05/18 07:36:00;;;;;;;5.72;3.78;;;16.60;99.90;;;;;;5013474;28;20050;-69
2022/05/18 07:38:29;;;;;;;10.18;3.53;;;16.80;99.90;;;;;;5012160;28;20119;-69
2022/05/18 07:40:55;;;;;;;7.40;3.63;;;17.00;99.90;;;;;;5013439;28;20149;-69
2022/05/18 07:43:21;;;;;;;9.75;4.10;;;17.30;99.90;;;;;;5013360;28;20053;-69
2022/05/18 07:45:48;;;;;;;4.47;2.92;;;17.70;99.90;;;;;;5011840;28;20042;-68
2022/05/18 07:48:14;;;;;;;8.18;3.55;;;18.20;99.90;;;;;;5015791;28;20036;-66
2022/05/18 07:50:40;;;;;;;8.60;3.88;;;18.70;99.90;;;;;;5016823;28;20048;-67
2022/05/18 07:53:06;;;;;;;8.25;3.80;;;19.10;99.90;;;;;;5016379;28;20109;-67
2022/05/18 07:55:32;;;;;;;10.77;3.63;;;19.10;99.90;;;;;;5014442;28;20025;-68
2022/05/18 07:57:57;;;;;;;14.02;4.13;;;19.10;99.90;;;;;;5016662;28;20381;-67
2022/05/18 08:00:24;;;;;;;7.35;3.70;;;19.10;99.90;;;;;;5016415;28;20045;-68
2022/05/18 08:02:51;;;;;;;6.07;3.90;;;19.50;99.90;;;;;;5016652;28;20065;-68
2022/05/18 08:05:17;;;;;;;12.95;4.25;;;19.70;99.90;;;;;;5015678;28;20033;-69
2022/05/18 08:07:45;;;;;;;7.93;4.22;;;19.80;99.90;;;;;;5016566;28;20018;-69
2022/05/18 08:15:43;;;;;;;14.15;4.90;;;19.70;99.90;;;;;;5015760;28;20037;-67
2022/05/18 08:18:10;;;;;;;6.68;3.78;;;20.10;99.90;;;;;;5015887;28;20504;-67
2022/05/18 08:20:38;;;;;;;9.07;3.92;;;20.40;99.90;;;;;;5015999;28;20018;-67
2022/05/18 08:23:04;;;;;;;9.63;4.15;;;20.50;99.90;;;;;;5016141;28;20052;-67
2022/05/18 08:25:30;;;;;;;9.77;4.30;;;20.80;99.90;;;;;;5015525;28;20526;-69
2022/05/18 08:27:55;;;;;;;7.97;4.20;;;21.10;99.90;;;;;;5016052;28;20105;-68
2022/05/18 08:30:22;;;;;;;9.75;4.20;;;21.10;99.90;;;;;;5015805;28;20041;-68
2022/05/18 08:32:48;;;;;;;8.75;3.97;;;21.10;99.90;;;;;;5016078;28;20076;-69
2022/05/18 08:35:14;;;;;;;10.70;4.57;;;21.30;99.90;;;;;;5014463;28;20033;-68
2022/05/18 08:37:48;;;;;;;10.57;4.45;;;21.50;99.90;;;;;;5015614;28;20030;-68
2022/05/18 08:40:30;;;;;;;9.07;4.38;;;21.50;99.90;;;;;;5015969;28;20046;-68
2022/05/18 08:42:57;;;;;;;12.10;4.43;;;21.70;99.90;;;;;;5016237;28;20141;-69
2022/05/18 08:45:29;;;;;;;9.43;4.43;;;21.50;99.90;;;;;;5014687;28;20386;-68
2022/05/18 08:48:16;;;;;;;8.15;3.97;;;21.70;99.90;;;;;;5015656;28;20026;-67
2022/05/18 08:50:42;;;;;;;9.98;4.47;;;21.70;99.90;;;;;;5015667;28;20025;-67
2022/05/18 08:53:32;;;;;;;12.48;5.25;;;21.90;99.90;;;;;;5015516;28;20026;-67
2022/05/18 08:56:23;;;;;;;15.15;4.47;;;22.20;99.90;;;;;;5014599;28;20383;-68
2022/05/18 08:58:51;;;;;;;9.07;4.75;;;22.20;99.90;;;;;;5014429;28;20033;-68
2022/05/18 09:01:36;;;;;;;5.47;3.97;;;22.50;99.90;;;;;;5015459;28;20425;-67
2022/05/18 09:04:08;;;;;;;11.82;5.10;;;22.50;99.90;;;;;;5013915;28;20034;-68
2022/05/18 09:06:37;;;;;;;8.85;4.13;;;22.80;99.90;;;;;;5015528;28;20057;-68
2022/05/18 09:11:54;;;;;;;10.23;4.82;;;23.00;99.90;;;;;;5015647;28;20080;-68
2022/05/18 09:14:23;;;;;;;7.78;4.80;;;23.00;99.90;;;;;;5013784;28;20030;-68
2022/05/18 09:17:14;;;;;;;10.18;5.18;;;23.20;99.90;;;;;;5015069;28;20049;-68
2022/05/18 09:19:45;;;;;;;17.00;5.20;;;23.50;99.90;;;;;;5014890;28;20032;-68
2022/05/18 09:22:40;;;;;;;6.88;4.88;;;23.60;99.90;;;;;;5015367;28;20117;-68
2022/05/18 09:25:43;;;;;;;9.63;4.93;;;23.80;99.90;;;;;;5013208;28;20018;-68
2022/05/18 09:28:32;;;;;;;13.30;5.13;;;24.10;99.90;;;;;;5012748;28;20029;-68
2022/05/18 09:31:03;;;;;;;9.25;5.07;;;24.00;99.90;;;;;;5015001;28;20496;-68
2022/05/18 09:33:54;;;;;;;14.00;6.38;;;24.00;99.90;;;;;;5014488;28;20061;-68
2022/05/18 09:36:22;;;;;;;11.43;4.72;;;23.70;99.90;;;;;;5013871;28;20029;-69
2022/05/18 09:39:04;;;;;;;14.00;4.93;;;23.70;99.90;;;;;;5014571;28;20026;-67
2022/05/18 09:41:36;;;;;;;9.07;5.97;;;23.70;99.90;;;;;;5014474;28;20478;-67
2022/05/18 09:44:10;;;;;;;9.32;5.10;;;23.60;99.90;;;;;;5014588;28;20036;-67
2022/05/18 09:46:37;;;;;;;13.25;5.68;;;23.70;99.90;;;;;;5012354;28;20422;-67
2022/05/18 09:49:34;;;;;;;13.30;5.45;;;23.80;99.90;;;;;;5014348;28;20022;-67
2022/05/18 09:52:03;;;;;;;13.32;5.53;;;24.10;99.90;;;;;;5013708;28;20441;-69
2022/05/18 09:54:31;;;;;;;10.63;4.88;;;24.10;99.90;;;;;;5012625;28;20030;-67
2022/05/18 09:57:06;;;;;;;8.10;4.78;;;24.10;99.90;;;;;;4994853;28;20033;-68
2022/05/18 09:59:41;;;;;;;11.68;5.82;;;24.30;99.90;;;;;;4994972;28;20062;-68
2022/05/18 10:07:49;;;;;;;12.02;4.95;;;24.80;99.90;;;;;;5011921;28;20389;-68
2022/05/18 10:10:23;;;;;;;9.15;5.25;;;24.90;99.90;;;;;;5013837;28;20037;-70
2022/05/18 10:13:03;;;;;;;9.52;4.63;;;25.10;99.90;;;;;;5014340;28;20076;-69
2022/05/18 10:15:48;;;;;;;11.45;5.57;;;25.40;99.90;;;;;;5014310;28;20045;-70
2022/05/18 10:18:22;;;;;;;7.55;4.95;;;25.60;99.90;;;;;;5013540;28;20030;-70
2022/05/18 10:21:20;;;;;;;8.43;4.43;;;25.60;99.90;;;;;;5014137;28;20063;-68
2022/05/18 10:23:52;;;;;;;14.10;5.70;;;25.90;99.90;;;;;;5014012;28;20096;-68
2022/05/18 10:26:26;;;;;;;9.60;4.30;;;25.90;99.90;;;;;;5013867;28;20026;-68
2022/05/18 10:28:59;;;;;;;9.05;4.53;;;26.20;99.90;;;;;;5011989;28;20034;-68
2022/05/18 10:31:32;;;;;;;16.33;6.03;;;26.10;99.90;;;;;;5014072;28;20022;-71
2022/05/18 10:34:14;;;;;;;9.23;3.85;;;26.30;99.90;;;;;;5013870;28;20030;-72
2022/05/18 10:36:44;;;;;;;8.07;4.63;;;26.40;99.90;;;;;;5013805;28;20026;-72
2022/05/18 10:39:09;;;;;;;13.35;5.03;;;26.50;99.90;;;;;;5012470;28;20045;-71
2022/05/18 10:41:42;;;;;;;11.68;4.72;;;26.90;99.90;;;;;;5013782;28;20022;-71
2022/05/18 10:44:22;;;;;;;13.48;5.70;;;27.10;99.90;;;;;;5013913;28;20018;-72
2022/05/18 10:46:50;;;;;;;10.50;4.90;;;27.30;99.90;;;;;;5011002;28;20045;-72
2022/05/18 10:49:36;;;;;;;9.02;5.13;;;27.50;99.90;;;;;;5012892;28;20041;-72
2022/05/18 10:52:20;;;;;;;12.00;5.45;;;27.40;99.90;;;;;;5013768;28;20053;-73
2022/05/18 10:55:01;;;;;;;10.43;5.15;;;27.50;99.90;;;;;;5013802;28;20137;-72
2022/05/18 10:57:36;;;;;;;9.85;5.25;;;27.50;99.90;;;;;;5011481;28;20390;-72
2022/05/18 11:00:20;;;;;;;12.52;5.05;;;27.60;99.90;;;;;;5013577;28;20022;-72
2022/05/18 11:03:05;;;;;;;13.23;4.55;;;27.50;99.90;;;;;;5013936;28;20029;-72
2022/05/18 11:05:58;;;;;;;8.75;4.75;;;27.80;99.90;;;;;;5013513;28;20121;-72
2022/05/18 11:08:28;;;;;;;10.10;4.97;;;28.20;99.90;;;;;;5013769;28;20438;-72
2022/05/18 11:11:23;;;;;;;10.55;4.63;;;28.20;99.90;;;;;;5013450;28;20040;-72
2022/05/18 11:14:07;;;;;;;10.32;5.05;;;28.30;99.90;;;;;;4996379;28;20045;-72
2022/05/18 11:16:56;;;;;;;11.57;4.13;;;28.60;99.90;;;;;;5013362;28;20050;-72
2022/05/18 11:19:39;;;;;;;9.07;4.43;;;28.60;99.90;;;;;;5013402;28;20065;-72
2022/05/18 11:22:19;;;;;;;9.60;3.65;;;28.70;99.90;;;;;;5014807;28;20018;-72
2022/05/18 11:24:58;;;;;;;15.13;4.43;;;29.00;99.90;;;;;;5017067;28;20018;-73
2022/05/18 11:27:49;;;;;;;10.90;4.13;;;29.20;99.90;;;;;;5017428;28;20109;-72
2022/05/18 11:30:34;;;;;;;7.78;3.70;;;29.40;99.90;;;;;;5017275;28;20025;-68
2022/05/18 11:33:27;;;;;;;13.75;4.22;;;29.20;99.90;;;;;;5017068;28;20030;-68
2022/05/18 11:36:25;;;;;;;6.70;3.72;;;28.70;99.90;;;;;;5017153;28;20438;-70
2022/05/18 11:39:10;;;;;;;9.55;3.75;;;28.20;99.90;;;;;;5017341;28;20045;-70
2022/05/18 11:41:47;;;;;;;6.45;3.28;;;28.10;99.90;;;;;;5017125;28;20013;-69
2022/05/18 11:44:22;;;;;;;8.85;3.65;;;28.30;99.90;;;;;;5017020;28;20052;-69
2022/05/18 11:46:48;;;;;;;9.02;3.42;;;28.50;99.90;;;;;;5017035;28;20101;-70
2022/05/18 11:49:31;;;;;;;15.32;3.85;;;28.70;99.90;;;;;;5016894;28;20046;-69
2022/05/18 11:52:34;;;;;;;14.23;2.88;;;28.80;99.90;;;;;;5016805;28;20022;-68
2022/05/18 11:55:05;;;;;;;10.13;3.50;;;29.00;99.90;;;;;;5016993;28;20025;-68
2022/05/18 11:57:45;;;;;;;8.40;3.38;;;29.40;99.90;;;;;;5016610;28;20037;-70
2022/05/18 12:00:46;;;;;;;7.15;3.17;;;29.30;99.90;;;;;;5016870;28;20044;-68
2022/05/18 12:03:27;;;;;;;9.02;4.03;;;29.60;99.90;;;;;;5016451;28;20030;-69
2022/05/18 12:06:22;;;;;;;8.40;4.05;;;29.90;99.90;;;;;;5031834;22;20042;-69
2022/05/18 12:08:54;;;;;;;8.02;3.58;;;29.40;99.90;;;;;;5016463;28;20030;-69
2022/05/18 12:11:28;;;;;;;11.70;3.45;;;29.30;99.90;;;;;;5016738;28;20041;-70
2022/05/18 12:14:21;;;;;;;5.28;3.05;;;29.60;99.90;;;;;;5016623;28;20383;-70
2022/05/18 12:16:58;;;;;;;12.20;4.35;;;30.00;99.90;;;;;;5016724;28;20404;-70
2022/05/18 12:19:45;;;;;;;8.35;4.20;;;29.60;99.90;;;;;;5016499;28;20398;-70
2022/05/18 12:22:14;;;;;;;8.35;4.90;;;29.90;99.90;;;;;;5016224;28;20108;-70
2022/05/18 12:24:44;;;;;;;4.63;3.55;;;29.90;99.90;;;;;;5016073;28;20030;-70
2022/05/18 12:27:12;;;;;;;12.00;5.13;;;30.30;99.90;;;;;;5016310;28;20038;-70
2022/05/18 12:29:39;;;;;;;17.40;5.07;;;30.30;99.90;;;;;;5016293;28;20026;-70
2022/05/18 12:32:06;;;;;;;8.57;4.53;;;30.10;99.90;;;;;;5015670;28;20033;-70
2022/05/18 12:34:35;;;;;;;10.38;4.22;;;30.20;99.90;;;;;;5015883;28;20377;-70
2022/05/18 12:37:13;;;;;;;9.23;3.88;;;30.30;99.90;;;;;;5016084;28;20025;-70
2022/05/18 12:39:44;;;;;;;8.95;3.90;;;30.70;99.90;;;;;;5016379;28;20026;-70
2022/05/18 12:42:15;;;;;;;14.32;4.57;;;30.90;99.90;;;;;;5016265;28;20022;-70
2022/05/18 12:44:51;;;;;;;11.80;4.80;;;30.60;99.90;;;;;;5015967;28;20030;-70
2022/05/18 12:47:27;;;;;;;10.20;4.97;;;31.00;99.90;;;;;;5016015;28;20080;-70
2022/05/18 12:50:07;;;;;;;14.73;3.78;;;30.90;99.90;;;;;;5015744;28;20022;-70
2022/05/18 12:52:55;;;;;;;8.23;4.25;;;31.20;99.90;;;;;;5015675;28;20536;-70
2022/05/18 12:55:33;;;;;;;9.40;4.72;;;30.90;99.90;;;;;;5015924;28;20022;-70
2022/05/18 12:58:10;;;;;;;17.40;6.53;;;30.80;99.90;;;;;;5016315;28;20467;-69
2022/05/18 13:00:50;;;;;;;20.80;8.25;;;29.50;99.90;;;;;;5015801;28;20084;-69
2022/05/18 13:03:15;;;;;;;18.83;7.40;;;29.40;99.90;;;;;;5015722;28;20022;-69
2022/05/18 13:05:46;;;;;;;12.18;7.60;;;29.60;99.90;;;;;;5015252;28;20397;-71
2022/05/18 13:08:15;;;;;;;10.45;5.68;;;29.60;99.90;;;;;;5015444;28;20029;-71
2022/05/18 13:11:00;;;;;;;16.40;6.55;;;29.60;99.90;;;;;;5015332;28;20073;-71
2022/05/18 13:13:26;;;;;;;16.67;7.32;;;30.30;99.90;;;;;;5015236;28;20026;-71
2022/05/18 13:15:59;;;;;;;11.10;6.10;;;30.40;99.90;;;;;;5015265;28;20030;-71
2022/05/18 13:18:29;;;;;;;11.80;5.25;;;30.40;99.90;;;;;;5015140;28;20029;-71
2022/05/18 13:21:07;;;;;;;8.98;4.43;;;31.30;99.90;;;;;;5015134;28;20101;-71
2022/05/18 13:23:38;;;;;;;14.38;6.25;;;32.60;99.90;;;;;;5015219;28;20504;-73